Time;durP1;ratioP1;P1;durP2;ratioP2;P2;SDS_P1;SDS_P2;PMS_P1;PMS_P2;Temp;Humidity;BMP_temperature;BMP_pressure;BME280_temperature;BME280_humidity;BME280_pressure;Samples;Min_cycle;Max_cycle;Signal;HPM_P1;HPM_P2
2022/08/21 00:01:54;;;;;;;7.30;6.10;;;;;;;20.60;100.00;100349.52;5288843;55;1141337;-64
2022/08/21 00:07:00;;;;;;;9.73;6.87;;;;;;;20.61;100.00;100354.38;5286291;55;1141119;-66
2022/08/21 00:12:07;;;;;;;6.95;6.33;;;;;;;20.63;100.00;100360.38;5194344;55;1141155;-64
2022/08/21 00:17:13;;;;;;;9.75;6.60;;;;;;;20.74;100.00;100350.51;5148218;56;1141169;-65
2022/08/21 00:22:19;;;;;;;8.98;7.30;;;;;;;20.82;100.00;100353.58;5197935;55;1141106;-65
2022/08/21 00:27:25;;;;;;;7.25;6.30;;;;;;;20.79;100.00;100348.06;5125868;56;1141247;-65
2022/08/21 00:32:32;;;;;;;7.32;6.50;;;;;;;20.76;100.00;100342.26;5140936;55;1141278;-65
2022/08/21 00:37:38;;;;;;;7.90;6.95;;;;;;;20.83;100.00;100337.77;5270396;55;1141333;-64
2022/08/21 00:42:44;;;;;;;6.42;5.85;;;;;;;20.75;100.00;100332.53;5227106;56;1141178;-65
2022/08/21 00:47:54;;;;;;;10.05;5.17;;;;;;;20.73;100.00;100340.78;5220766;56;1141134;-63
2022/08/21 00:53:02;;;;;;;8.43;6.28;;;;;;;20.61;100.00;100339.09;5152254;57;1143206;-64
2022/08/21 00:58:12;;;;;;;7.70;6.30;;;;;;;20.48;100.00;100342.10;5157317;57;1139025;-65
2022/08/21 01:03:22;;;;;;;7.37;6.53;;;;;;;20.41;100.00;100344.72;5162758;56;1139179;-65
2022/08/21 01:08:29;;;;;;;7.25;5.83;;;;;;;20.38;100.00;100348.28;5027038;57;1139309;-64
2022/08/21 01:13:39;;;;;;;12.25;6.53;;;;;;;20.27;100.00;100349.56;5120024;57;1138944;-62
2022/08/21 01:18:48;;;;;;;8.03;5.87;;;;;;;20.16;100.00;100345.50;5121481;56;1141188;-65
2022/08/21 01:23:56;;;;;;;5.92;5.17;;;;;;;20.10;100.00;100344.05;5136960;56;1139157;-64
2022/08/21 01:29:16;;;;;;;7.95;6.05;;;;;;;20.09;100.00;100345.06;5141826;57;1139163;-65
2022/08/21 01:34:22;;;;;;;8.53;5.25;;;;;;;19.97;100.00;100345.53;5222384;55;1139120;-64
2022/08/21 01:39:28;;;;;;;5.90;5.28;;;;;;;19.89;100.00;100342.08;5227508;56;1139057;-63
2022/08/21 01:44:34;;;;;;;5.03;4.58;;;;;;;19.76;100.00;100343.22;5222689;56;1139127;-65
2022/08/21 01:49:41;;;;;;;6.70;4.12;;;;;;;19.76;100.00;100343.22;5151874;57;1139283;-64
2022/08/21 01:54:47;;;;;;;9.43;5.47;;;;;;;19.71;100.00;100331.69;5104742;57;1139094;-64
2022/08/21 01:59:54;;;;;;;9.75;5.40;;;;;;;19.67;100.00;100318.33;5180853;56;1137243;-66
2022/08/21 02:05:00;;;;;;;7.60;4.95;;;;;;;19.68;100.00;100321.34;5129684;57;1137258;-64
2022/08/21 02:10:08;;;;;;;7.75;5.67;;;;;;;19.63;100.00;100322.39;5136190;57;1141123;-64
2022/08/21 02:15:15;;;;;;;6.50;5.00;;;;;;;19.62;100.00;100315.35;4978442;58;1141181;-64
2022/08/21 02:20:32;;;;;;;9.47;6.97;;;;;;;19.58;100.00;100313.53;5182301;56;1141165;-65
2022/08/21 02:25:40;;;;;;;8.60;6.17;;;;;;;19.47;100.00;100315.80;5180104;56;1141170;-65
2022/08/21 02:30:48;;;;;;;12.82;7.78;;;;;;;19.49;100.00;100313.30;5168599;56;1141129;-65
2022/08/21 02:35:56;;;;;;;7.97;6.78;;;;;;;19.43;100.00;100307.78;5233639;56;1143492;-64
2022/08/21 02:41:02;;;;;;;12.73;8.15;;;;;;;19.37;100.00;100303.98;5134626;57;1141152;-65
2022/08/21 02:46:10;;;;;;;12.33;7.45;;;;;;;19.39;100.00;100296.60;5139496;57;1143341;-65
2022/08/21 02:51:20;;;;;;;7.35;6.62;;;;;;;19.30;100.00;100282.41;5203161;56;1143294;-63
2022/08/21 02:56:26;;;;;;;9.13;6.95;;;;;;;19.25;100.00;100271.39;5140299;57;1141121;-66
2022/08/21 03:01:31;;;;;;;13.62;8.48;;;;;;;19.28;100.00;100279.58;5059598;57;1141381;-63
2022/08/21 03:06:39;;;;;;;11.22;6.72;;;;;;;19.27;100.00;100281.43;5241222;55;1143460;-65
2022/08/21 03:11:45;;;;;;;11.97;5.55;;;;;;;19.27;100.00;100286.80;5236384;55;1143182;-64
2022/08/21 03:16:51;;;;;;;12.93;7.17;;;;;;;19.31;100.00;100293.47;5208915;55;1143308;-63
2022/08/21 03:21:57;;;;;;;9.68;7.70;;;;;;;19.35;100.00;100291.77;5236109;55;1143762;-65
2022/08/21 03:27:04;;;;;;;9.53;5.87;;;;;;;19.37;100.00;100298.63;5232499;55;1141212;-64
2022/08/21 03:32:10;;;;;;;10.58;7.97;;;;;;;19.36;100.00;100306.34;5225789;55;1141192;-63
2022/08/21 03:37:17;;;;;;;8.50;6.60;;;;;;;19.32;100.00;100305.86;5208798;56;1143803;-64
2022/08/21 03:42:23;;;;;;;7.10;6.40;;;;;;;19.32;100.00;100317.93;5142000;57;1140998;-66
2022/08/21 03:47:29;;;;;;;8.50;7.70;;;;;;;19.24;100.00;100322.03;5138155;57;1141170;-67
2022/08/21 03:52:36;;;;;;;6.87;6.37;;;;;;;19.13;100.00;100323.77;5115700;57;1141372;-64
2022/08/21 03:57:42;;;;;;;6.66;6.02;;;;;;;19.06;100.00;100320.66;5005716;57;1141137;-64
2022/08/21 04:02:49;;;;;;;6.30;5.78;;;;;;;19.06;100.00;100328.20;5009476;58;1141147;-65
2022/08/21 04:08:04;;;;;;;4.97;4.58;;;;;;;19.04;100.00;100334.23;5165254;56;1141075;-66
2022/08/21 04:13:10;;;;;;;4.72;4.17;;;;;;;19.09;100.00;100343.94;5157339;55;1141073;-63
2022/08/21 04:18:17;;;;;;;4.45;4.05;;;;;;;19.11;100.00;100349.09;5182844;56;1141040;-65
2022/08/21 04:23:23;;;;;;;5.05;4.42;;;;;;;19.08;100.00;100350.81;5195113;56;1141329;-64
2022/08/21 04:28:30;;;;;;;3.98;3.67;;;;;;;18.97;100.00;100346.67;5188390;56;1141190;-66
2022/08/21 04:33:37;;;;;;;3.77;3.45;;;;;;;18.95;100.00;100350.03;5188875;56;1141294;-64
2022/08/21 04:38:42;;;;;;;5.37;3.50;;;;;;;18.88;100.00;100352.59;5214766;56;1141082;-65
2022/08/21 04:43:49;;;;;;;5.12;3.10;;;;;;;18.82;100.00;100359.16;5189385;56;1141031;-67
2022/08/21 04:48:55;;;;;;;4.03;3.40;;;;;;;18.77;100.00;100362.39;5207011;56;1139149;-63
2022/08/21 04:54:15;;;;;;;3.17;2.85;;;;;;;18.75;100.00;100364.91;5163243;55;1139035;-66
2022/08/21 04:59:25;;;;;;;4.08;2.40;;;;;;;18.76;100.00;100367.41;5162529;56;1139020;-64
2022/08/21 05:04:34;;;;;;;3.50;3.10;;;;;;;18.76;100.00;100375.95;5176553;56;1139013;-64
2022/08/21 05:09:40;;;;;;;4.12;2.58;;;;;;;18.70;100.00;100384.17;5159286;56;1139026;-63
2022/08/21 05:14:46;;;;;;;4.67;1.92;;;;;;;18.73;100.00;100401.25;5188777;56;1139057;-66
2022/08/21 05:19:54;;;;;;;2.00;1.90;;;;;;;18.76;100.00;100408.94;5168545;56;1138956;-64
2022/08/21 05:25:01;;;;;;;2.40;2.30;;;;;;;18.76;100.00;100414.30;5225338;55;1138998;-65
2022/08/21 05:30:09;;;;;;;4.14;2.40;;;;;;;18.69;100.00;100408.46;5178041;56;1138983;-64
2022/08/21 05:35:15;;;;;;;1.82;1.70;;;;;;;18.77;100.00;100409.78;5183076;56;1139206;-63
2022/08/21 05:40:22;;;;;;;1.37;1.27;;;;;;;18.83;100.00;100402.36;5175805;55;1139078;-65
2022/08/21 05:45:33;;;;;;;3.22;1.30;;;;;;;18.79;100.00;100402.41;5204730;56;1139091;-66
2022/08/21 05:50:38;;;;;;;1.32;1.22;;;;;;;18.85;100.00;100421.78;5078243;56;1136871;-64
2022/08/21 05:55:45;;;;;;;1.55;1.42;;;;;;;18.80;100.00;100422.80;5114723;57;1136944;-63
2022/08/21 06:00:53;;;;;;;1.47;1.47;;;;;;;18.74;100.00;100417.66;5100599;56;1140926;-65
2022/08/21 06:06:00;;;;;;;2.33;1.60;;;;;;;18.70;100.00;100420.84;5188101;56;1144044;-65
2022/08/21 06:11:07;;;;;;;2.50;1.72;;;;;;;18.67;100.00;100407.80;5146599;55;1141335;-66
2022/08/21 06:16:16;;;;;;;1.60;1.50;;;;;;;18.71;100.00;100408.62;5275129;55;1141149;-63
2022/08/21 06:21:22;;;;;;;1.15;1.15;;;;;;;18.74;100.00;100402.08;5222968;56;1141148;-65
2022/08/21 06:26:28;;;;;;;3.50;2.30;;;;;;;18.76;100.00;100392.87;5238503;56;1141160;-65
2022/08/21 06:31:34;;;;;;;2.12;2.02;;;;;;;18.66;100.00;100374.81;5216998;56;1141150;-64
2022/08/21 06:36:41;;;;;;;1.67;1.57;;;;;;;18.57;100.00;100368.64;5134447;56;1141273;-64
2022/08/21 06:41:47;;;;;;;1.90;1.75;;;;;;;18.58;100.00;100358.28;5169269;56;1141088;-64
2022/08/21 06:46:53;;;;;;;1.82;1.72;;;;;;;18.57;100.00;100344.53;5230103;56;1141132;-64
2022/08/21 06:51:59;;;;;;;1.62;1.62;;;;;;;18.66;100.00;100339.15;5156445;56;1141400;-64
2022/08/21 06:57:05;;;;;;;2.27;1.37;;;;;;;18.69;100.00;100353.03;5123720;57;1141074;-64
2022/08/21 07:02:11;;;;;;;2.20;1.98;;;;;;;18.77;100.00;100360.21;5059755;57;1141228;-65
2022/08/21 07:07:19;;;;;;;4.37;1.45;;;;;;;18.71;100.00;100360.39;5078966;57;1141133;-65
2022/08/21 07:12:25;;;;;;;1.72;1.65;;;;;;;18.72;100.00;100384.84;5170999;55;1141400;-65
2022/08/21 07:17:33;;;;;;;1.46;1.46;;;;;;;18.73;100.00;100375.80;5176578;55;1141224;-66
2022/08/21 07:22:40;;;;;;;2.42;1.57;;;;;;;18.77;100.00;100368.25;5189415;56;1141176;-65
2022/08/21 07:27:46;;;;;;;1.42;1.42;;;;;;;18.75;100.00;100372.94;5157391;56;1141387;-65
2022/08/21 07:32:52;;;;;;;1.87;1.77;;;;;;;18.75;100.00;100387.68;5137415;56;1141403;-66
2022/08/21 07:37:58;;;;;;;1.87;1.75;;;;;;;18.79;100.00;100390.34;5142121;57;1141128;-65
2022/08/21 07:43:06;;;;;;;2.04;1.82;;;;;;;18.83;100.00;100392.98;5066434;57;1141188;-64
2022/08/21 07:48:12;;;;;;;2.50;2.05;;;;;;;18.88;100.00;100389.28;5074413;57;1141421;-64
2022/08/21 07:53:18;;;;;;;1.95;1.77;;;;;;;18.90;100.00;100385.92;5073405;57;1141194;-67
2022/08/21 07:58:24;;;;;;;1.70;1.60;;;;;;;18.89;100.00;100390.95;5144542;56;1141378;-66
2022/08/21 08:03:31;;;;;;;1.90;1.80;;;;;;;18.85;100.00;100398.50;5121976;56;1141097;-64
2022/08/21 08:08:40;;;;;;;1.67;1.55;;;;;;;18.83;100.00;100404.53;5118094;57;1141175;-64
2022/08/21 08:13:49;;;;;;;2.90;2.20;;;;;;;18.95;100.00;100406.31;5175593;56;1141164;-66
2022/08/21 08:18:55;;;;;;;1.55;1.50;;;;;;;18.96;100.00;100409.32;5148455;56;1140753;-67
2022/08/21 08:24:01;;;;;;;1.80;1.70;;;;;;;19.06;100.00;100415.32;5091185;56;1141143;-66
2022/08/21 08:29:07;;;;;;;1.10;1.07;;;;;;;19.15;100.00;100421.45;5160283;56;1140627;-66
2022/08/21 08:34:13;;;;;;;1.95;1.57;;;;;;;19.21;100.00;100416.73;5054639;57;1141089;-66
2022/08/21 08:39:19;;;;;;;1.47;1.47;;;;;;;19.18;100.00;100415.24;5176442;56;1141372;-66
2022/08/21 08:44:26;;;;;;;1.85;1.75;;;;;;;19.21;100.00;100414.89;5131992;56;1141131;-67
2022/08/21 08:50:05;;;;;;;1.72;1.62;;;;;;;19.22;100.00;100414.39;5204471;55;1141225;-66
2022/08/21 08:55:25;;;;;;;1.62;1.52;;;;;;;19.20;100.00;100415.91;5227398;56;1139049;-66
2022/08/21 09:00:33;;;;;;;2.00;1.82;;;;;;;19.20;100.00;100414.56;5164050;56;1139347;-67
2022/08/21 09:05:58;;;;;;;1.90;1.80;;;;;;;19.18;100.00;100422.45;5162658;56;1139061;-64
2022/08/21 09:11:17;;;;;;;1.86;1.68;;;;;;;19.20;100.00;100418.58;5137753;56;1139026;-67
2022/08/21 09:16:36;;;;;;;6.92;4.42;;;;;;;19.19;100.00;100411.55;5156544;56;1137010;-67
2022/08/21 09:21:59;;;;;;;2.60;2.40;;;;;;;19.17;100.00;100404.19;5163131;56;1141121;-67
2022/08/21 09:27:18;;;;;;;2.98;2.58;;;;;;;19.17;100.00;100409.55;5112095;56;1141087;-66
2022/08/21 09:32:28;;;;;;;2.98;2.52;;;;;;;19.26;100.00;100419.20;5148376;56;1141155;-67
2022/08/21 09:37:57;;;;;;;2.20;2.10;;;;;;;19.38;100.00;100420.98;5162881;56;1141142;-66
2022/08/21 09:43:14;;;;;;;3.42;1.77;;;;;;;19.38;100.00;100426.86;5049601;57;1141137;-65
2022/08/21 09:48:24;;;;;;;1.90;1.80;;;;;;;19.40;100.00;100425.64;5144555;56;1141147;-64
2022/08/21 09:53:32;;;;;;;1.98;1.87;;;;;;;19.40;100.00;100431.54;5151903;56;1140491;-64
2022/08/21 09:58:41;;;;;;;1.55;1.55;;;;;;;19.36;100.00;100431.55;5160878;57;1141129;-64
2022/08/21 10:03:47;;;;;;;1.72;1.57;;;;;;;19.32;100.00;100427.05;5064464;57;1141398;-65
2022/08/21 10:09:15;;;;;;;3.10;2.87;;;;;;;19.35;100.00;100429.38;5078419;57;1141377;-66
2022/08/21 10:14:51;;;;;;;2.10;2.00;;;;;;;19.33;100.00;100437.60;5073249;57;1141291;-66
2022/08/21 10:20:19;;;;;;;2.87;2.08;;;;;;;19.35;100.00;100428.04;5066995;57;1141141;-66
2022/08/21 10:25:32;;;;;;;3.58;1.92;;;;;;;19.45;100.00;100434.00;5075875;57;1138391;-68
2022/08/21 10:30:48;;;;;;;2.90;1.90;;;;;;;19.45;100.00;100441.20;5057815;57;1139048;-69
2022/08/21 10:36:26;;;;;;;1.60;1.60;;;;;;;19.49;100.00;100451.91;4954787;58;1139359;-70
2022/08/21 10:42:08;;;;;;;3.77;1.85;;;;;;;19.49;100.00;100462.17;4973044;59;1139129;-67
2022/08/21 10:47:26;;;;;;;1.77;1.67;;;;;;;19.55;100.00;100461.98;4960245;59;1141259;-71
2022/08/21 10:53:16;;;;;;;3.15;2.50;;;;;;;19.62;100.00;100470.46;4934429;59;1141503;-67
2022/08/21 10:58:51;;;;;;;2.17;1.70;;;;;;;19.66;100.00;100468.27;4940917;57;1141266;-64
2022/08/21 11:04:51;;;;;;;1.90;1.80;;;;;;;19.70;100.00;100477.63;4912573;57;1141342;-66
2022/08/21 11:10:02;;;;;;;2.20;1.85;;;;;;;19.69;100.00;100463.89;5090879;57;1141284;-68
2022/08/21 11:15:46;;;;;;;1.80;1.70;;;;;;;19.64;100.00;100448.82;4953182;58;1141148;-67
2022/08/21 11:21:03;;;;;;;;;;;;;;;19.67;100.00;100447.13;4980686;57;1139365;-66
2022/08/21 11:26:20;;;;;;;2.02;1.92;;;;;;;19.70;100.00;100442.75;5095330;56;976396;-67
2022/08/21 11:31:58;;;;;;;2.27;1.70;;;;;;;19.73;100.00;100440.19;5022870;57;1137218;-63
2022/08/21 11:37:15;;;;;;;3.70;2.10;;;;;;;19.72;100.00;100438.52;5024073;57;1141579;-61
2022/08/21 11:42:44;;;;;;;3.67;1.92;;;;;;;19.70;100.00;100433.36;5043293;57;1141435;-64
2022/08/21 11:48:03;;;;;;;2.55;2.20;;;;;;;19.74;100.00;100421.73;5089749;57;1142237;-66
2022/08/21 11:53:17;;;;;;;1.92;1.77;;;;;;;19.77;100.00;100418.19;5051017;57;1141218;-64
2022/08/21 11:58:42;;;;;;;4.00;2.02;;;;;;;19.80;100.00;100422.36;5001767;57;1141085;-66
2022/08/21 12:04:09;;;;;;;7.53;2.50;;;;;;;19.79;100.00;100422.87;4973493;58;1141088;-63
2022/08/21 12:09:36;;;;;;;5.00;2.80;;;;;;;19.77;100.00;100413.33;5025976;57;1141243;-64
2022/08/21 12:14:46;;;;;;;2.65;2.45;;;;;;;19.75;100.00;100413.50;5107747;57;1141387;-61
2022/08/21 12:20:01;;;;;;;1.50;1.40;;;;;;;19.73;100.00;100421.41;5039466;57;1141055;-66
2022/08/21 12:25:14;;;;;;;3.12;1.80;;;;;;;19.79;100.00;100422.03;5077819;57;1141123;-67
2022/08/21 12:30:37;;;;;;;2.52;1.40;;;;;;;19.75;100.00;100426.09;5175317;56;1141168;-64
2022/08/21 12:35:44;;;;;;;2.22;1.80;;;;;;;19.72;100.00;100429.95;5221355;56;1139065;-65
2022/08/21 12:40:57;;;;;;;1.67;1.57;;;;;;;19.74;100.00;100433.30;5079624;57;1139051;-66
2022/08/21 12:46:04;;;;;;;1.60;1.47;;;;;;;19.76;100.00;100446.55;5066068;57;1139276;-63
2022/08/21 12:51:21;;;;;;;3.60;1.57;;;;;;;19.76;100.00;100451.41;5075997;57;1138978;-62
2022/08/21 12:56:31;;;;;;;3.90;2.17;;;;;;;19.77;100.00;100453.08;5168763;56;1138926;-64
2022/08/21 13:01:54;;;;;;;1.98;1.62;;;;;;;19.83;100.00;100459.08;5157301;56;1139075;-66
2022/08/21 13:07:01;;;;;;;3.17;1.70;;;;;;;19.92;100.00;100456.64;5138806;56;1139073;-65
2022/08/21 13:12:09;;;;;;;2.00;1.60;;;;;;;19.82;100.00;100455.23;5145027;56;1136963;-64
2022/08/21 13:17:19;;;;;;;1.55;1.42;;;;;;;19.72;100.00;100458.64;5149117;56;1136938;-63
2022/08/21 13:22:27;;;;;;;1.77;1.02;;;;;;;19.61;100.00;100463.93;5165624;56;1141299;-66
2022/08/21 13:27:33;;;;;;;2.90;1.50;;;;;;;19.54;100.00;100465.17;5148313;56;1141142;-68
2022/08/21 13:32:45;;;;;;;1.70;1.52;;;;;;;19.55;100.00;100466.00;5200452;56;1141088;-66
2022/08/21 13:37:51;;;;;;;;;;;;;;;19.52;100.00;100468.53;5084489;56;1141169;-65
2022/08/21 13:42:58;;;;;;;5.58;2.58;;;;;;;19.51;100.00;100478.93;5091583;57;978474;-64
2022/08/21 13:48:05;;;;;;;2.85;1.50;;;;;;;19.40;100.00;100491.89;5125564;57;1139056;-67
2022/08/21 13:53:32;;;;;;;1.37;1.30;;;;;;;19.15;100.00;100499.20;5172896;56;1141222;-64
2022/08/21 13:58:47;;;;;;;3.42;1.30;;;;;;;18.96;100.00;100495.92;5149686;57;1141004;-63
2022/08/21 14:04:01;;;;;;;1.86;1.22;;;;;;;18.79;100.00;100506.38;4994981;58;1141109;-64
2022/08/21 14:09:15;;;;;;;2.75;0.82;;;;;;;18.62;100.00;100515.48;4999011;58;1141282;-67
2022/08/21 14:14:35;;;;;;;1.77;1.30;;;;;;;18.53;100.00;100519.14;5141587;57;1141067;-63
2022/08/21 14:19:47;;;;;;;1.40;1.00;;;;;;;18.46;100.00;100528.37;4956078;58;1141067;-61
2022/08/21 14:25:04;;;;;;;1.15;1.05;;;;;;;18.46;100.00;100532.89;4996904;58;1141095;-66
2022/08/21 14:30:23;;;;;;;2.58;1.35;;;;;;;18.51;100.00;100545.25;4975599;58;1141027;-64
2022/08/21 14:35:29;;;;;;;1.37;1.10;;;;;;;18.45;100.00;100546.78;5096514;57;1141094;-61
2022/08/21 14:40:35;;;;;;;3.10;1.30;;;;;;;18.44;100.00;100551.81;5089445;58;1141077;-66
2022/08/21 14:45:43;;;;;;;1.40;1.30;;;;;;;18.43;100.00;100554.15;5016743;58;1141205;-65
2022/08/21 15:05:01;;;;;;;1.80;1.30;;;;;;;18.44;100.00;100567.88;5323549;54;46893;-62
2022/08/21 15:10:08;;;;;;;1.50;1.40;;;;;;;18.40;100.00;100570.55;5126624;57;1136937;-63
2022/08/21 15:15:14;;;;;;;2.02;1.27;;;;;;;18.40;100.00;100569.20;5013569;57;1141159;-62
2022/08/21 15:20:19;;;;;;;3.17;1.75;;;;;;;18.41;100.00;100562.85;5116870;57;1141111;-63
2022/08/21 15:25:25;;;;;;;1.85;1.75;;;;;;;18.39;100.00;100564.86;5098665;56;1141122;-62
2022/08/21 15:30:33;;;;;;;3.06;1.76;;;;;;;18.40;100.00;100564.36;5129163;56;1141099;-63
2022/08/21 15:35:39;;;;;;;3.17;1.70;;;;;;;18.42;100.00;100565.03;5123234;57;1141263;-65
2022/08/21 15:40:47;;;;;;;4.92;3.47;;;;;;;18.40;100.00;100569.20;4968793;58;1141064;-65
2022/08/21 15:45:53;;;;;;;1.67;1.57;;;;;;;18.32;100.00;100585.30;5011993;58;1141216;-67
2022/08/21 15:50:59;;;;;;;4.28;1.75;;;;;;;18.27;100.00;100576.91;4933864;60;1141125;-66
2022/08/21 15:56:07;;;;;;;2.40;1.77;;;;;;;18.29;100.00;100574.91;4944920;59;1141401;-64
2022/08/21 16:01:13;;;;;;;4.08;1.47;;;;;;;18.25;100.00;100576.23;4940010;59;1141193;-66
2022/08/21 16:06:19;;;;;;;3.92;1.70;;;;;;;18.19;100.00;100573.72;4963107;59;1141049;-66
2022/08/21 16:11:25;;;;;;;4.33;1.90;;;;;;;18.09;100.00;100568.20;5016156;58;1141171;-65
2022/08/21 16:16:35;;;;;;;4.58;1.80;;;;;;;18.13;100.00;100571.72;4947332;57;1141099;-61
2022/08/21 16:21:41;;;;;;;2.95;1.90;;;;;;;18.14;100.00;100574.73;4990932;59;1141168;-67
2022/08/21 16:26:46;;;;;;;10.88;3.70;;;;;;;18.09;100.00;100577.06;4990940;59;1141155;-66
2022/08/21 16:31:53;;;;;;;5.08;2.60;;;;;;;18.13;100.00;100569.55;4946672;59;1143200;-62
2022/08/21 16:36:59;;;;;;;26.93;2.08;;;;;;;18.11;100.00;100584.94;4990793;58;1141186;-66
2022/08/21 16:42:05;;;;;;;3.65;1.90;;;;;;;18.07;100.00;100580.91;4990479;58;1143464;-64
2022/08/21 16:47:12;;;;;;;9.28;2.92;;;;;;;18.14;100.00;100587.28;4990775;59;1141155;-63
2022/08/21 16:52:18;;;;;;;4.32;2.58;;;;;;;18.17;100.00;100591.81;4990526;59;1141023;-67
2022/08/21 16:57:26;;;;;;;7.37;2.60;;;;;;;18.08;100.00;100595.47;4991748;59;1141125;-67
2022/08/21 17:02:37;;;;;;;3.05;1.98;;;;;;;18.02;100.00;100589.95;4984810;58;1141166;-67
2022/08/21 17:07:44;;;;;;;6.55;2.70;;;;;;;17.90;100.00;100596.09;4997732;58;1141275;-66
2022/08/21 17:12:57;;;;;;;4.35;2.20;;;;;;;17.77;100.00;100591.23;5043412;57;1141387;-65
2022/08/21 17:18:06;;;;;;;1.57;1.50;;;;;;;17.74;100.00;100595.56;4931002;60;1141182;-64
2022/08/21 17:23:12;;;;;;;3.72;1.80;;;;;;;17.76;100.00;100604.27;5073454;58;1139061;-66
2022/08/21 17:28:23;;;;;;;3.95;2.75;;;;;;;17.70;100.00;100602.27;5096779;57;1138965;-65
2022/08/21 17:33:41;;;;;;;3.12;2.10;;;;;;;17.60;100.00;100613.55;5038775;58;1139308;-62
2022/08/21 17:38:46;;;;;;;5.22;1.70;;;;;;;17.44;100.00;100618.83;5015277;59;1139210;-64
2022/08/21 17:43:54;;;;;;;5.05;1.30;;;;;;;17.36;100.00;100616.14;4980803;58;1138399;-64
2022/08/21 17:49:00;;;;;;;2.33;1.40;;;;;;;17.26;100.00;100620.78;5010502;58;1139143;-66
2022/08/21 17:54:06;;;;;;;2.23;1.90;;;;;;;17.05;100.00;100617.98;5104956;58;1139128;-62
2022/08/21 17:59:14;;;;;;;3.63;1.87;;;;;;;16.90;100.00;100623.57;5105086;58;1139132;-64
2022/08/21 18:04:19;;;;;;;9.83;3.00;;;;;;;16.82;100.00;100624.34;5070736;57;1139336;-66
2022/08/21 18:09:28;;;;;;;3.00;1.90;;;;;;;16.66;100.00;100623.37;5051537;58;1139112;-61
2022/08/21 18:14:36;;;;;;;4.78;2.58;;;;;;;16.53;100.00;100631.27;5137164;57;1139075;-63
2022/08/21 18:19:41;;;;;;;4.90;2.67;;;;;;;16.50;100.00;100625.39;5053902;58;1139261;-65
2022/08/21 18:24:47;;;;;;;5.30;3.47;;;;;;;16.42;100.00;100622.17;5115975;57;1139023;-63
2022/08/21 18:29:56;;;;;;;3.20;2.07;;;;;;;16.38;100.00;100620.80;5047382;58;1137313;-66
2022/08/21 18:35:04;;;;;;;6.10;2.77;;;;;;;16.36;100.00;100620.11;4992534;59;21182;-67
2022/08/21 18:40:12;;;;;;;22.80;10.82;;;;;;;16.45;100.00;100631.72;4977502;57;1137047;-66
2022/08/21 18:45:21;;;;;;;10.47;7.40;;;;;;;16.51;100.00;100631.08;5102792;57;1145230;-66
2022/08/21 18:50:28;;;;;;;176.47;154.07;;;;;;;16.55;100.00;100635.12;5136224;56;1143081;-67
2022/08/21 18:55:36;;;;;;;67.26;45.94;;;;;;;16.63;100.00;100627.72;5085483;57;1149657;-68
2022/08/21 19:00:46;;;;;;;10.47;5.57;;;;;;;16.77;100.00;100627.16;5128699;57;1145226;-64
2022/08/21 19:05:54;;;;;;;5.85;5.08;;;;;;;16.87;100.00;100631.89;5110886;56;1143514;-66
2022/08/21 19:11:01;;;;;;;16.93;13.00;;;;;;;16.90;100.00;100630.74;5141417;57;1141350;-66
2022/08/21 19:16:08;;;;;;;7.03;2.90;;;;;;;16.85;100.00;100623.19;5141483;57;1145425;-63
2022/08/21 19:21:13;;;;;;;12.47;7.00;;;;;;;16.82;100.00;100618.16;5121163;56;1141111;-64
2022/08/21 19:26:21;;;;;;;7.47;3.80;;;;;;;16.82;100.00;100619.00;5141225;57;1143403;-65
2022/08/21 19:31:32;;;;;;;7.80;4.97;;;;;;;16.87;100.00;100619.87;5141045;57;1141237;-66
2022/08/21 19:36:38;;;;;;;9.20;5.47;;;;;;;16.87;100.00;100619.38;5140843;57;1141131;-66
2022/08/21 19:41:50;;;;;;;11.30;5.13;;;;;;;16.99;100.00;100621.28;5167304;56;1141348;-63
2022/08/21 19:46:57;;;;;;;179.33;62.27;;;;;;;17.03;100.00;100619.13;5201920;56;1143168;-66
2022/08/21 19:52:03;;;;;;;10.83;7.00;;;;;;;16.99;100.00;100618.60;5227953;56;1147354;-64
2022/08/21 19:57:11;;;;;;;4.05;2.60;;;;;;;17.06;100.00;100619.66;5227835;56;1143250;-64
2022/08/21 20:02:18;;;;;;;3.07;2.77;;;;;;;17.20;100.00;100620.91;5194973;56;1141350;-67
2022/08/21 20:07:24;;;;;;;3.33;2.30;;;;;;;17.22;100.00;100621.09;5178994;56;1141303;-65
2022/08/21 20:12:30;;;;;;;10.03;3.37;;;;;;;17.31;100.00;100629.13;5150155;56;1141115;-64
2022/08/21 20:17:37;;;;;;;2.67;2.27;;;;;;;17.29;100.00;100625.78;5138424;57;1143333;-62
2022/08/21 20:22:43;;;;;;;4.55;3.87;;;;;;;17.20;100.00;100631.59;5126634;56;1141123;-61
2022/08/21 20:27:49;;;;;;;3.90;2.62;;;;;;;17.21;100.00;100626.09;5173951;56;1141066;-65
2022/08/21 20:32:55;;;;;;;8.73;2.70;;;;;;;17.18;100.00;100623.73;5128606;57;1141135;-63
2022/08/21 20:38:01;;;;;;;6.62;2.67;;;;;;;17.17;100.00;100619.38;5205621;56;1141135;-62
2022/08/21 20:43:10;;;;;;;5.42;2.80;;;;;;;17.16;100.00;100619.53;5214205;56;1141146;-62
2022/08/21 20:48:23;;;;;;;3.42;2.50;;;;;;;17.23;100.00;100617.42;5213927;56;1141435;-61
2022/08/21 20:53:49;;;;;;;6.28;2.67;;;;;;;17.25;100.00;100621.27;5184698;56;1141135;-62
2022/08/21 20:59:02;;;;;;;7.40;2.92;;;;;;;17.26;100.00;100622.11;5121634;56;1139225;-64
2022/08/21 21:04:14;;;;;;;;;;;;;;;17.22;100.00;100621.59;5199361;56;1139135;-64
2022/08/21 21:09:25;;;;;;;3.02;2.72;;;;;;;17.30;100.00;100621.61;5186705;56;975784;-64
2022/08/21 21:14:37;;;;;;;4.20;2.10;;;;;;;17.33;100.00;100622.63;5193651;57;1137163;-65
2022/08/21 21:19:55;;;;;;;7.08;2.87;;;;;;;17.37;100.00;100615.14;5152526;57;1139274;-65
2022/08/21 21:25:35;;;;;;;6.50;3.05;;;;;;;17.39;100.00;100622.50;5194732;57;1139375;-65
2022/08/21 21:30:45;;;;;;;8.58;3.65;;;;;;;17.47;100.00;100627.37;5141084;56;1141094;-66
2022/08/21 21:35:54;;;;;;;2.90;2.40;;;;;;;17.52;100.00;100627.73;5128698;57;1141172;-67
2022/08/21 21:41:25;;;;;;;13.90;3.47;;;;;;;17.50;100.00;100627.56;5186136;56;1141049;-65
2022/08/21 21:46:52;;;;;;;5.03;3.17;;;;;;;17.34;100.00;100624.81;5116821;56;1143284;-64
2022/08/21 21:52:48;;;;;;;5.95;2.25;;;;;;;17.23;100.00;100621.93;5085268;57;1141149;-65
2022/08/21 21:58:23;;;;;;;6.85;2.47;;;;;;;17.18;100.00;100614.38;5110936;57;1141088;-66
2022/08/21 22:03:35;;;;;;;8.13;2.65;;;;;;;17.23;100.00;100622.77;5188182;56;1141380;-64
2022/08/21 22:09:03;;;;;;;5.83;2.33;;;;;;;17.31;100.00;100627.80;5211990;56;1141183;-65
2022/08/21 22:14:15;;;;;;;6.35;2.10;;;;;;;17.42;100.00;100626.17;5208702;56;1139143;-67
2022/08/21 22:19:31;;;;;;;3.25;2.00;;;;;;;17.54;100.00;100626.25;5206907;56;1138971;-65
2022/08/21 22:24:46;;;;;;;3.35;2.27;;;;;;;17.62;100.00;100617.40;5213841;56;1139001;-67
2022/08/21 22:29:59;;;;;;;2.75;1.92;;;;;;;17.52;100.00;100621.55;5213841;56;1139013;-65
2022/08/21 22:35:21;;;;;;;6.20;1.97;;;;;;;17.48;100.00;100618.85;5214004;56;1139057;-67
2022/08/21 22:40:35;;;;;;;6.95;2.10;;;;;;;17.39;100.00;100618.50;5169270;56;1139057;-66
2022/08/21 22:46:06;;;;;;;5.92;2.42;;;;;;;17.39;100.00;100623.84;5213857;56;1139022;-67
2022/08/21 22:51:37;;;;;;;8.70;2.30;;;;;;;17.44;100.00;100618.83;5214017;56;1141269;-65
2022/08/21 22:56:46;;;;;;;6.53;1.95;;;;;;;17.52;100.00;100616.20;5213050;56;1141160;-65
2022/08/21 23:02:00;;;;;;;7.20;2.33;;;;;;;17.52;100.00;100616.20;5213672;56;1141126;-66
2022/08/21 23:07:06;;;;;;;3.30;1.43;;;;;;;17.47;100.00;100615.84;5214891;56;1141096;-67
2022/08/21 23:12:30;;;;;;;7.60;1.30;;;;;;;17.47;100.00;100618.02;5223924;56;1141122;-66
2022/08/21 23:17:50;;;;;;;4.05;1.80;;;;;;;17.47;100.00;100619.85;5224128;56;1141130;-67
2022/08/21 23:23:06;;;;;;;6.90;1.85;;;;;;;17.42;100.00;100610.13;5207649;56;1141255;-66
2022/08/21 23:28:34;;;;;;;2.37;1.47;;;;;;;17.44;100.00;100615.66;5211105;56;1141500;-65
2022/08/21 23:34:20;;;;;;;1.40;1.30;;;;;;;17.42;100.00;100605.62;5183280;56;1141153;-63